createdAt,value
2024-02-26T00:00:26.438Z,7.64
2024-02-26T00:02:52.943Z,7.63
2024-02-26T00:05:19.382Z,7.62
2024-02-26T00:07:46.235Z,7.64
2024-02-26T00:10:12.812Z,7.62
2024-02-26T00:12:40.420Z,7.62
2024-02-26T00:15:11.544Z,7.66
2024-02-26T00:17:38.598Z,7.61
2024-02-26T00:20:09.452Z,7.52
2024-02-26T00:22:36.372Z,7.50
2024-02-26T00:25:02.957Z,7.51
2024-02-26T00:27:29.513Z,7.50
2024-02-26T00:29:55.990Z,7.53
2024-02-26T00:32:22.524Z,7.51
2024-02-26T00:34:49.172Z,7.52
2024-02-26T00:37:15.639Z,7.46
2024-02-26T00:39:42.152Z,7.45
2024-02-26T00:42:09.191Z,7.43
2024-02-26T00:44:35.914Z,7.39
2024-02-26T00:47:03.074Z,7.35
2024-02-26T00:49:29.641Z,7.28
2024-02-26T00:51:56.833Z,7.30
2024-02-26T00:54:23.340Z,7.32
2024-02-26T00:56:49.863Z,7.33
2024-02-26T00:59:16.394Z,7.32
2024-02-26T01:01:42.856Z,7.28
2024-02-26T01:04:09.409Z,7.28
2024-02-26T01:06:36.218Z,7.27
2024-02-26T01:09:02.845Z,7.25
2024-02-26T01:11:29.414Z,7.24
2024-02-26T01:13:57.784Z,7.25
2024-02-26T01:16:24.819Z,7.27
2024-02-26T01:18:51.380Z,7.27
2024-02-26T01:21:17.986Z,7.24
2024-02-26T01:23:44.579Z,7.22
2024-02-26T01:26:11.863Z,7.21
2024-02-26T01:28:38.365Z,7.19
2024-02-26T01:31:07.838Z,7.18
2024-02-26T01:33:34.623Z,7.22
2024-02-26T01:36:02.061Z,7.23
2024-02-26T01:38:29.006Z,7.22
2024-02-26T01:40:55.689Z,7.21
2024-02-26T01:43:22.200Z,7.19
2024-02-26T01:45:48.661Z,7.19
2024-02-26T01:48:15.340Z,7.23
2024-02-26T01:50:42.344Z,7.25
2024-02-26T01:53:10.351Z,7.23
2024-02-26T01:55:37.272Z,7.23
2024-02-26T01:58:03.964Z,7.25
2024-02-26T02:00:30.639Z,7.25
2024-02-26T02:02:57.559Z,7.27
2024-02-26T02:05:24.488Z,7.25
2024-02-26T02:07:52.409Z,7.28
2024-02-26T02:10:23.862Z,7.25
2024-02-26T02:12:50.620Z,7.25
2024-02-26T02:15:17.173Z,7.25
2024-02-26T02:17:44.023Z,7.26
2024-02-26T02:20:16.179Z,7.29
2024-02-26T02:22:42.720Z,7.27
2024-02-26T02:25:09.359Z,7.26
2024-02-26T02:27:35.950Z,7.29
2024-02-26T02:30:03.649Z,7.30
2024-02-26T02:32:30.601Z,7.30
2024-02-26T02:34:57.893Z,7.30
2024-02-26T02:37:24.392Z,7.31
2024-02-26T02:39:50.843Z,7.32
2024-02-26T02:42:17.330Z,7.36
2024-02-26T02:44:45.713Z,7.38
2024-02-26T02:47:12.382Z,7.41
2024-02-26T02:49:39.024Z,7.44
2024-02-26T02:52:05.750Z,7.43
2024-02-26T02:54:32.456Z,7.39
2024-02-26T02:56:58.947Z,7.39
2024-02-26T02:59:26.559Z,7.35
2024-02-26T03:01:53.751Z,7.38
2024-02-26T03:04:20.250Z,7.43
2024-02-26T03:06:46.849Z,7.45
2024-02-26T03:09:13.504Z,7.46
2024-02-26T03:11:41.050Z,7.41
2024-02-26T03:14:07.764Z,7.41
2024-02-26T03:16:34.815Z,7.40
2024-02-26T03:19:01.385Z,7.42
2024-02-26T03:21:28.485Z,7.43
2024-02-26T03:23:55.017Z,7.42
2024-02-26T03:26:22.521Z,7.40
2024-02-26T03:28:49.038Z,7.40
2024-02-26T03:31:15.954Z,7.39
2024-02-26T03:33:42.593Z,7.35
2024-02-26T03:36:09.482Z,7.32
2024-02-26T03:38:36.045Z,7.34
2024-02-26T03:41:02.507Z,7.34
2024-02-26T03:43:28.994Z,7.32
2024-02-26T03:45:55.507Z,7.30
2024-02-26T03:48:22.096Z,7.26
2024-02-26T03:50:48.651Z,7.26
2024-02-26T03:53:15.207Z,7.23
2024-02-26T03:55:43.005Z,7.21
2024-02-26T03:58:10.141Z,7.21
2024-02-26T04:00:37.015Z,7.24
2024-02-26T04:03:03.738Z,7.21
2024-02-26T04:05:30.196Z,7.21
2024-02-26T04:07:56.776Z,7.22
2024-02-26T04:10:23.293Z,7.21
2024-02-26T04:12:49.782Z,7.22
2024-02-26T04:15:16.268Z,7.21
2024-02-26T04:17:43.285Z,7.17
2024-02-26T04:20:15.256Z,7.18
2024-02-26T04:22:41.723Z,7.17
2024-02-26T04:25:08.643Z,7.15
2024-02-26T04:27:35.305Z,7.19
2024-02-26T04:30:01.885Z,7.22
2024-02-26T04:32:29.099Z,7.24
2024-02-26T04:34:55.603Z,7.25
2024-02-26T04:37:22.065Z,7.24
2024-02-26T04:39:51.172Z,7.24
2024-02-26T04:42:17.984Z,7.21
2024-02-26T04:44:44.574Z,7.17
2024-02-26T04:47:11.759Z,7.20
2024-02-26T04:49:38.331Z,7.25
2024-02-26T04:52:05.292Z,7.28
2024-02-26T04:54:31.694Z,7.29
2024-02-26T04:56:58.213Z,7.29
2024-02-26T04:59:24.680Z,7.30
2024-02-26T05:01:53.722Z,7.30
2024-02-26T05:04:20.426Z,7.30
2024-02-26T05:06:47.067Z,7.27
2024-02-26T05:09:13.711Z,7.24
2024-02-26T05:11:42.148Z,7.24
2024-02-26T05:14:10.026Z,7.25
2024-02-26T05:16:36.461Z,7.28
2024-02-26T05:19:03.943Z,7.27
2024-02-26T05:21:30.634Z,7.28
2024-02-26T05:23:57.237Z,7.25
2024-02-26T05:26:24.137Z,7.26
2024-02-26T05:28:51.428Z,7.27
2024-02-26T05:31:19.187Z,7.27
2024-02-26T05:33:46.304Z,7.25
2024-02-26T05:36:23.261Z,7.27
2024-02-26T05:38:50.131Z,7.25
2024-02-26T05:41:17.821Z,7.25
2024-02-26T05:43:44.442Z,7.22
2024-02-26T05:46:10.969Z,7.20
2024-02-26T05:48:37.557Z,7.18
2024-02-26T05:51:05.582Z,7.23
2024-02-26T05:53:32.060Z,7.24
2024-02-26T05:55:58.525Z,7.23
2024-02-26T05:58:25.050Z,7.23
2024-02-26T06:00:51.687Z,7.22
2024-02-26T06:03:18.327Z,7.20
2024-02-26T06:05:45.089Z,7.18
2024-02-26T06:08:11.634Z,7.18
2024-02-26T06:10:38.211Z,7.19
2024-02-26T06:13:04.873Z,7.18
2024-02-26T06:15:31.594Z,7.21
2024-02-26T06:17:58.176Z,7.22
2024-02-26T06:20:24.892Z,7.22
2024-02-26T06:22:52.297Z,7.25
2024-02-26T06:25:18.803Z,7.21
2024-02-26T06:27:45.246Z,7.24
2024-02-26T06:30:12.436Z,7.24
2024-02-26T06:32:39.308Z,7.20
2024-02-26T06:35:09.086Z,7.23
2024-02-26T06:37:36.132Z,7.23
2024-02-26T06:40:05.157Z,7.21
2024-02-26T06:42:31.838Z,7.22
2024-02-26T06:44:58.419Z,7.21
2024-02-26T06:47:24.895Z,7.24
2024-02-26T06:49:51.470Z,7.23
2024-02-26T06:52:17.939Z,7.23
2024-02-26T06:54:44.424Z,7.23
2024-02-26T06:57:10.908Z,7.26
2024-02-26T06:59:37.512Z,7.26
2024-02-26T07:02:04.192Z,7.29
2024-02-26T07:04:32.441Z,7.29
2024-02-26T07:06:58.981Z,7.30
2024-02-26T07:09:26.295Z,7.27
2024-02-26T07:11:52.899Z,7.32
2024-02-26T07:14:19.380Z,7.32
2024-02-26T07:16:45.846Z,7.31
2024-02-26T07:19:12.326Z,7.28
2024-02-26T07:21:38.808Z,7.33
2024-02-26T07:24:05.572Z,7.34
2024-02-26T07:26:32.126Z,7.34
2024-02-26T07:28:59.108Z,7.33
2024-02-26T07:31:25.518Z,7.29
2024-02-26T07:33:52.587Z,7.33
2024-02-26T07:36:19.242Z,7.31
2024-02-26T07:38:47.022Z,7.30
2024-02-26T07:41:14.939Z,7.37
2024-02-26T07:43:42.162Z,7.33
2024-02-26T07:46:08.778Z,7.38
2024-02-26T07:48:35.999Z,7.39
2024-02-26T07:51:04.422Z,7.33
2024-02-26T07:53:31.455Z,7.33
2024-02-26T07:55:58.134Z,7.37
2024-02-26T07:58:24.874Z,7.33
2024-02-26T08:00:51.761Z,7.32
2024-02-26T08:03:18.451Z,7.32
2024-02-26T08:05:45.151Z,7.33
2024-02-26T08:08:11.890Z,7.35
2024-02-26T08:10:38.478Z,7.42
2024-02-26T08:13:07.731Z,7.45
2024-02-26T08:15:35.621Z,7.42
2024-02-26T08:18:04.660Z,7.48
2024-02-26T08:20:31.983Z,7.48
2024-02-26T08:22:58.525Z,7.51
2024-02-26T08:25:25.728Z,7.52
2024-02-26T08:27:52.224Z,7.52
2024-02-26T08:30:18.954Z,7.47
2024-02-26T08:32:52.053Z,7.50
2024-02-26T08:35:20.050Z,7.50
2024-02-26T08:37:47.656Z,7.52
2024-02-26T08:40:15.170Z,7.54
2024-02-26T08:42:41.765Z,7.58
2024-02-26T08:45:09.441Z,7.54
2024-02-26T08:47:36.105Z,7.57
2024-02-26T08:50:03.122Z,7.61
2024-02-26T08:52:29.594Z,7.61
2024-02-26T08:54:56.068Z,7.54
2024-02-26T08:57:22.603Z,7.52
2024-02-26T08:59:49.141Z,7.50
2024-02-26T09:02:15.706Z,7.47
2024-02-26T09:04:42.310Z,7.50
2024-02-26T09:07:08.888Z,7.47
2024-02-26T09:09:35.573Z,7.44
2024-02-26T09:12:02.196Z,7.49
2024-02-26T09:14:28.885Z,7.51
2024-02-26T09:16:55.576Z,7.53
2024-02-26T09:19:22.118Z,7.50
2024-02-26T09:21:48.707Z,7.54
2024-02-26T09:24:15.973Z,7.49
2024-02-26T09:26:42.660Z,7.49
2024-02-26T09:29:09.667Z,7.52
2024-02-26T09:31:36.278Z,7.55
2024-02-26T09:34:03.412Z,7.53
2024-02-26T09:36:30.145Z,7.54
2024-02-26T09:39:00.981Z,7.53
2024-02-26T09:41:32.023Z,7.57
2024-02-26T09:44:00.517Z,7.55
2024-02-26T09:46:27.234Z,7.53
2024-02-26T09:48:54.569Z,7.54
2024-02-26T09:51:26.073Z,7.55
2024-02-26T09:53:54.056Z,7.59
2024-02-26T09:56:21.367Z,7.54
2024-02-26T09:58:50.311Z,7.54
2024-02-26T10:01:20.939Z,7.54
2024-02-26T10:03:56.167Z,7.55
2024-02-26T10:06:22.895Z,7.49
2024-02-26T10:08:49.666Z,7.51
2024-02-26T10:11:16.992Z,7.49
2024-02-26T10:13:43.494Z,7.48
2024-02-26T10:16:10.913Z,7.46
2024-02-26T10:18:58.842Z,7.57
2024-02-26T10:21:27.094Z,7.57
2024-02-26T10:23:53.904Z,7.54
2024-02-26T10:26:21.214Z,7.55
2024-02-26T10:28:51.248Z,7.54
2024-02-26T10:31:20.513Z,7.55
2024-02-26T10:33:47.443Z,7.55
2024-02-26T10:36:14.353Z,7.61
2024-02-26T10:38:40.959Z,7.63
2024-02-26T10:41:08.023Z,7.66
2024-02-26T10:43:34.530Z,7.66
2024-02-26T10:46:01.079Z,7.68
2024-02-26T10:48:27.838Z,7.68
2024-02-26T10:50:54.664Z,7.73
2024-02-26T10:53:22.392Z,7.71
2024-02-26T10:56:02.929Z,7.80
2024-02-26T10:58:30.094Z,7.80
2024-02-26T11:00:58.070Z,7.80
2024-02-26T11:03:26.095Z,7.79
2024-02-26T11:05:53.869Z,7.81
2024-02-26T11:08:25.819Z,7.86
2024-02-26T11:10:55.000Z,7.83
2024-02-26T11:13:22.832Z,7.86
2024-02-26T11:15:51.455Z,7.91
2024-02-26T11:18:20.648Z,7.87
2024-02-26T11:20:49.328Z,7.88
2024-02-26T11:23:16.486Z,7.88
2024-02-26T11:25:43.612Z,7.84
2024-02-26T11:28:13.851Z,7.83
2024-02-26T11:30:45.707Z,7.84
2024-02-26T11:33:13.736Z,7.80
2024-02-26T11:35:40.842Z,7.83
2024-02-26T11:38:08.646Z,7.78
2024-02-26T11:40:40.883Z,7.82
2024-02-26T11:43:07.443Z,7.86
2024-02-26T11:45:40.114Z,7.89
2024-02-26T11:48:14.138Z,7.92
2024-02-26T11:50:42.438Z,7.90
2024-02-26T11:53:27.232Z,7.97
2024-02-26T11:56:18.383Z,7.98
2024-02-26T11:58:45.179Z,8.01
2024-02-26T12:01:38.511Z,8.06
2024-02-26T12:04:12.787Z,8.05
2024-02-26T12:06:53.920Z,8.09
2024-02-26T12:09:40.435Z,8.09
2024-02-26T12:12:09.641Z,8.02
2024-02-26T12:14:52.746Z,8.04
2024-02-26T12:17:24.641Z,8.03
2024-02-26T12:19:52.853Z,8.06
2024-02-26T12:22:20.554Z,7.97
2024-02-26T12:24:47.108Z,8.02
2024-02-26T12:27:16.214Z,8.02
2024-02-26T12:29:42.885Z,8.02
2024-02-26T12:32:09.441Z,8.02
2024-02-26T12:34:36.697Z,8.07
2024-02-26T12:37:03.433Z,8.14
2024-02-26T12:39:31.523Z,8.09
2024-02-26T12:42:00.614Z,8.14
2024-02-26T12:44:27.817Z,8.13
2024-02-26T12:47:04.953Z,8.22
2024-02-26T12:49:32.591Z,8.20
2024-02-26T12:52:02.836Z,8.14
2024-02-26T12:54:32.878Z,8.17
2024-02-26T12:57:01.866Z,8.20
2024-02-26T12:59:29.064Z,8.19
2024-02-26T13:01:55.929Z,8.20
2024-02-26T13:04:22.527Z,8.19
2024-02-26T13:06:49.191Z,8.24
2024-02-26T13:09:16.250Z,8.20
2024-02-26T13:11:42.779Z,8.17
2024-02-26T13:14:09.958Z,8.23
2024-02-26T13:16:36.709Z,8.17
2024-02-26T13:19:11.437Z,8.24
2024-02-26T13:21:38.090Z,8.21
2024-02-26T13:24:05.807Z,8.20
2024-02-26T13:26:32.297Z,8.22
2024-02-26T13:29:04.646Z,8.28
2024-02-26T13:31:31.362Z,8.22
2024-02-26T13:33:58.114Z,8.21
2024-02-26T13:36:25.417Z,8.22
2024-02-26T13:38:54.250Z,8.26
2024-02-26T13:41:20.964Z,8.20
2024-02-26T13:43:47.872Z,8.24
2024-02-26T13:46:16.184Z,8.23
2024-02-26T13:48:43.429Z,8.21
2024-02-26T13:51:10.428Z,8.15
2024-02-26T13:53:36.868Z,8.14
2024-02-26T13:56:06.610Z,8.17
2024-02-26T13:58:33.118Z,8.17
2024-02-26T14:01:00.891Z,8.21
2024-02-26T14:03:27.648Z,8.17
2024-02-26T14:05:54.464Z,8.24
2024-02-26T14:08:21.861Z,8.29
2024-02-26T14:10:48.434Z,8.30
2024-02-26T14:13:14.986Z,8.37
2024-02-26T14:15:41.571Z,8.43
2024-02-26T14:18:09.072Z,8.41
2024-02-26T14:20:36.046Z,8.43
2024-02-26T14:23:02.473Z,8.41
2024-02-26T14:25:31.283Z,8.41
2024-02-26T14:27:59.396Z,8.41
2024-02-26T14:30:27.256Z,8.40
2024-02-26T14:32:53.972Z,8.43
2024-02-26T14:35:20.665Z,8.44
2024-02-26T14:37:49.004Z,8.49
2024-02-26T14:40:16.861Z,8.48
2024-02-26T14:42:43.798Z,8.42
2024-02-26T14:45:10.778Z,8.45
2024-02-26T14:47:37.433Z,8.48
2024-02-26T14:50:05.316Z,8.48
2024-02-26T14:52:32.003Z,8.46
2024-02-26T14:54:58.557Z,8.49
2024-02-26T14:57:26.064Z,8.47
2024-02-26T14:59:52.752Z,8.43
2024-02-26T15:02:19.409Z,8.47
2024-02-26T15:04:46.212Z,8.44
2024-02-26T15:07:16.321Z,8.43
2024-02-26T15:09:43.371Z,8.47
2024-02-26T15:12:10.500Z,8.47
2024-02-26T15:14:37.023Z,8.45
2024-02-26T15:17:04.406Z,8.43
2024-02-26T15:19:31.145Z,8.46
2024-02-26T15:21:57.721Z,8.48
2024-02-26T15:24:24.268Z,8.49
2024-02-26T15:26:50.750Z,8.52
2024-02-26T15:29:17.204Z,8.52
2024-02-26T15:31:43.692Z,8.53
2024-02-26T15:34:10.782Z,8.54
2024-02-26T15:36:37.539Z,8.52
2024-02-26T15:39:04.612Z,8.53
2024-02-26T15:41:31.587Z,8.50
2024-02-26T15:44:00.299Z,8.51
2024-02-26T15:46:27.074Z,8.49
2024-02-26T15:48:53.694Z,8.50
2024-02-26T15:51:27.249Z,8.50
2024-02-26T15:53:54.667Z,8.49
2024-02-26T15:56:25.131Z,8.50
2024-02-26T15:58:52.542Z,8.54
2024-02-26T16:01:24.164Z,8.49
2024-02-26T16:03:52.296Z,8.45
2024-02-26T16:06:30.261Z,8.46
2024-02-26T16:08:56.970Z,8.41
2024-02-26T16:11:23.527Z,8.41
2024-02-26T16:13:54.502Z,8.40
2024-02-26T16:16:27.552Z,8.38
2024-02-26T16:19:06.718Z,8.39
2024-02-26T16:21:33.464Z,8.28
2024-02-26T16:24:00.603Z,8.25
2024-02-26T16:26:27.174Z,8.26
2024-02-26T16:28:53.576Z,8.23
2024-02-26T16:31:20.101Z,8.20
2024-02-26T16:33:46.845Z,8.14
2024-02-26T16:36:13.701Z,8.10
2024-02-26T16:38:40.662Z,8.03
2024-02-26T16:41:07.220Z,7.97
2024-02-26T16:43:36.087Z,7.92
2024-02-26T16:46:02.842Z,7.90
2024-02-26T16:48:35.312Z,7.87
2024-02-26T16:51:03.684Z,7.78
2024-02-26T16:53:30.442Z,7.74
2024-02-26T16:55:58.684Z,7.72
2024-02-26T16:58:26.050Z,7.73
2024-02-26T17:00:52.737Z,7.67
2024-02-26T17:03:19.334Z,7.65
2024-02-26T17:05:46.130Z,7.61
2024-02-26T17:08:13.063Z,7.61
2024-02-26T17:10:39.635Z,7.57
2024-02-26T17:13:06.118Z,7.54
2024-02-26T17:15:32.860Z,7.53
2024-02-26T17:17:59.624Z,7.48
2024-02-26T17:20:26.136Z,7.43
2024-02-26T17:22:52.727Z,7.46
2024-02-26T17:25:20.429Z,7.38
2024-02-26T17:27:46.927Z,7.34
2024-02-26T17:30:13.683Z,7.33
2024-02-26T17:32:40.259Z,7.30
2024-02-26T17:35:07.938Z,7.29
2024-02-26T17:37:34.777Z,7.25
2024-02-26T17:40:01.271Z,7.25
2024-02-26T17:42:28.082Z,7.25
2024-02-26T17:44:54.794Z,7.24
2024-02-26T17:47:21.322Z,7.24
2024-02-26T17:49:47.914Z,7.24
2024-02-26T17:52:14.738Z,7.22
2024-02-26T17:54:41.272Z,7.26
2024-02-26T17:57:07.968Z,7.30
2024-02-26T17:59:34.438Z,7.27
2024-02-26T18:02:00.926Z,7.31
2024-02-26T18:04:27.537Z,7.30
2024-02-26T18:06:54.206Z,7.30
2024-02-26T18:09:20.778Z,7.25
2024-02-26T18:11:47.577Z,7.18
2024-02-26T18:14:14.154Z,7.15
2024-02-26T18:16:40.791Z,7.11
2024-02-26T18:19:07.431Z,7.06
2024-02-26T18:21:34.748Z,7.03
2024-02-26T18:24:01.410Z,7.03
2024-02-26T18:26:28.937Z,7.00
2024-02-26T18:28:55.421Z,7.03
2024-02-26T18:31:22.187Z,7.04
2024-02-26T18:33:49.047Z,7.00
2024-02-26T18:36:17.336Z,6.94
2024-02-26T18:38:44.370Z,6.97
2024-02-26T18:41:19.692Z,6.99
2024-02-26T18:43:46.710Z,6.91
2024-02-26T18:46:13.961Z,6.87
2024-02-26T18:48:40.785Z,6.92
2024-02-26T18:51:07.358Z,6.91
2024-02-26T18:53:33.913Z,6.88
2024-02-26T18:56:00.331Z,6.88
2024-02-26T18:58:26.866Z,6.85
2024-02-26T19:00:53.473Z,6.86
2024-02-26T19:03:37.502Z,6.83
2024-02-26T19:06:06.500Z,6.81
2024-02-26T19:08:33.044Z,6.81
2024-02-26T19:11:00.389Z,6.83
2024-02-26T19:13:27.305Z,6.87
2024-02-26T19:15:53.832Z,6.86
2024-02-26T19:18:20.468Z,6.87
2024-02-26T19:20:48.080Z,6.85
2024-02-26T19:23:14.901Z,6.88
2024-02-26T19:25:43.512Z,6.86
2024-02-26T19:28:10.210Z,6.87
2024-02-26T19:30:36.817Z,6.84
2024-02-26T19:33:04.609Z,6.86
2024-02-26T19:35:31.210Z,6.84
2024-02-26T19:37:57.779Z,6.80
2024-02-26T19:40:24.727Z,6.80
2024-02-26T19:42:51.168Z,6.83
2024-02-26T19:45:17.727Z,6.85
2024-02-26T19:47:44.379Z,6.85
2024-02-26T19:50:10.946Z,6.82
2024-02-26T19:52:37.586Z,6.84
2024-02-26T19:55:04.609Z,6.80
2024-02-26T19:57:31.568Z,6.78
2024-02-26T19:59:58.693Z,6.78
2024-02-26T20:02:25.664Z,6.76
2024-02-26T20:04:52.205Z,6.76
2024-02-26T20:07:21.526Z,6.74
2024-02-26T20:09:48.695Z,6.71
2024-02-26T20:12:15.812Z,6.70
2024-02-26T20:14:45.455Z,6.72
2024-02-26T20:17:12.060Z,6.70
2024-02-26T20:19:38.778Z,6.69
2024-02-26T20:22:05.472Z,6.70
2024-02-26T20:24:32.047Z,6.67
2024-02-26T20:27:01.676Z,6.66
2024-02-26T20:29:28.267Z,6.63
2024-02-26T20:31:54.768Z,6.57
2024-02-26T20:34:21.455Z,6.55
2024-02-26T20:36:48.151Z,6.56
2024-02-26T20:39:14.898Z,6.56
2024-02-26T20:41:41.906Z,6.53
2024-02-26T20:44:08.550Z,6.49
2024-02-26T20:46:35.108Z,6.50
2024-02-26T20:49:01.913Z,6.50
2024-02-26T20:51:30.235Z,6.53
2024-02-26T20:53:58.372Z,6.51
2024-02-26T20:56:25.102Z,6.48
2024-02-26T20:58:51.716Z,6.51
2024-02-26T21:01:18.617Z,6.49
2024-02-26T21:03:45.120Z,6.49
2024-02-26T21:06:11.732Z,6.47
2024-02-26T21:08:38.733Z,6.53
2024-02-26T21:11:06.431Z,6.57
2024-02-26T21:13:33.643Z,6.51
2024-02-26T21:16:00.920Z,6.54
2024-02-26T21:18:27.892Z,6.56
2024-02-26T21:20:55.559Z,6.56
2024-02-26T21:23:22.435Z,6.59
2024-02-26T21:25:48.976Z,6.58
2024-02-26T21:28:15.434Z,6.59
2024-02-26T21:30:42.008Z,6.57
2024-02-26T21:33:08.785Z,6.58
2024-02-26T21:35:35.504Z,6.58
2024-02-26T21:38:02.678Z,6.58
2024-02-26T21:40:29.162Z,6.55
2024-02-26T21:42:55.718Z,6.57
2024-02-26T21:45:24.585Z,6.55
2024-02-26T21:47:51.370Z,6.57
2024-02-26T21:50:17.946Z,6.53
2024-02-26T21:52:44.832Z,6.55
2024-02-26T21:55:14.217Z,6.55
2024-02-26T21:57:41.000Z,6.55
2024-02-26T22:00:08.212Z,6.50
2024-02-26T22:02:34.731Z,6.50
2024-02-26T22:05:01.959Z,6.50
2024-02-26T22:07:28.724Z,6.55
2024-02-26T22:09:55.409Z,6.55
2024-02-26T22:12:21.978Z,6.58
2024-02-26T22:14:48.865Z,6.55
2024-02-26T22:17:15.390Z,6.58
2024-02-26T22:19:42.017Z,6.57
2024-02-26T22:22:08.546Z,6.64
2024-02-26T22:24:36.290Z,6.64
2024-02-26T22:27:03.298Z,6.59
2024-02-26T22:29:30.708Z,6.60
2024-02-26T22:32:00.533Z,6.61
2024-02-26T22:34:28.048Z,6.60
2024-02-26T22:36:54.643Z,6.56
2024-02-26T22:39:22.888Z,6.56
2024-02-26T22:41:49.732Z,6.54
2024-02-26T22:44:16.543Z,6.54
2024-02-26T22:46:43.122Z,6.54
2024-02-26T22:49:09.679Z,6.49
2024-02-26T22:51:36.304Z,6.43
2024-02-26T22:54:03.401Z,6.43
2024-02-26T22:56:29.914Z,6.39
2024-02-26T22:58:56.435Z,6.32
2024-02-26T23:01:25.289Z,6.29
2024-02-26T23:03:52.122Z,6.29
2024-02-26T23:06:19.001Z,6.28
2024-02-26T23:08:45.548Z,6.25
2024-02-26T23:11:12.136Z,6.23
2024-02-26T23:13:39.853Z,6.23
2024-02-26T23:16:06.689Z,6.20
2024-02-26T23:18:33.320Z,6.15
2024-02-26T23:21:00.056Z,6.19
2024-02-26T23:23:26.671Z,6.18
2024-02-26T23:25:53.668Z,6.15
2024-02-26T23:28:20.245Z,6.16
2024-02-26T23:30:46.853Z,6.15
2024-02-26T23:33:13.621Z,6.15
2024-02-26T23:35:40.179Z,6.18
2024-02-26T23:38:06.961Z,6.12
2024-02-26T23:40:34.877Z,6.13
2024-02-26T23:43:02.569Z,6.11
2024-02-26T23:45:29.582Z,6.08
2024-02-26T23:47:56.329Z,6.06
2024-02-26T23:50:24.879Z,6.03
2024-02-26T23:52:52.177Z,6.02
2024-02-26T23:55:19.171Z,6.01
2024-02-26T23:57:45.683Z,6.04
